sensor_id;sensor_type;location;lat;lon;timestamp;temperature;humidity
10472;DHT22;5283;48.876;8.962;2023-01-05T00:01:10;9.90;99.90
10472;DHT22;5283;48.876;8.962;2023-01-05T00:03:37;9.90;99.90
10472;DHT22;5283;48.876;8.962;2023-01-05T00:06:10;9.90;99.90
10472;DHT22;5283;48.876;8.962;2023-01-05T00:08:38;10.00;99.90
10472;DHT22;5283;48.876;8.962;2023-01-05T00:11:06;10.00;99.90
10472;DHT22;5283;48.876;8.962;2023-01-05T00:13:51;9.90;99.90
10472;DHT22;5283;48.876;8.962;2023-01-05T00:16:37;9.80;99.90
10472;DHT22;5283;48.876;8.962;2023-01-05T00:19:22;9.80;99.90
10472;DHT22;5283;48.876;8.962;2023-01-05T00:25:14;10.00;99.90
10472;DHT22;5283;48.876;8.962;2023-01-05T00:27:42;10.10;99.90
10472;DHT22;5283;48.876;8.962;2023-01-05T00:30:11;10.20;99.90
10472;DHT22;5283;48.876;8.962;2023-01-05T00:32:40;10.20;99.90
10472;DHT22;5283;48.876;8.962;2023-01-05T00:35:07;10.20;99.90
10472;DHT22;5283;48.876;8.962;2023-01-05T00:37:35;10.20;99.90
10472;DHT22;5283;48.876;8.962;2023-01-05T00:40:05;10.20;99.90
10472;DHT22;5283;48.876;8.962;2023-01-05T00:42:32;10.10;99.90
10472;DHT22;5283;48.876;8.962;2023-01-05T00:44:59;10.00;99.90
10472;DHT22;5283;48.876;8.962;2023-01-05T00:47:26;10.00;99.90
10472;DHT22;5283;48.876;8.962;2023-01-05T00:49:53;10.00;99.90
10472;DHT22;5283;48.876;8.962;2023-01-05T00:52:19;10.10;99.90
10472;DHT22;5283;48.876;8.962;2023-01-05T00:54:46;10.10;99.90
10472;DHT22;5283;48.876;8.962;2023-01-05T00:57:13;10.10;99.90
10472;DHT22;5283;48.876;8.962;2023-01-05T00:59:40;10.10;99.90
10472;DHT22;5283;48.876;8.962;2023-01-05T01:02:07;10.10;99.90
10472;DHT22;5283;48.876;8.962;2023-01-05T01:04:34;10.10;99.90
10472;DHT22;5283;48.876;8.962;2023-01-05T01:07:01;10.10;99.90
10472;DHT22;5283;48.876;8.962;2023-01-05T01:09:28;10.10;99.90
10472;DHT22;5283;48.876;8.962;2023-01-05T01:11:55;10.10;99.90
10472;DHT22;5283;48.876;8.962;2023-01-05T01:14:22;10.10;99.90
10472;DHT22;5283;48.876;8.962;2023-01-05T01:16:49;10.10;99.90
10472;DHT22;5283;48.876;8.962;2023-01-05T01:19:22;10.30;99.90
10472;DHT22;5283;48.876;8.962;2023-01-05T01:21:49;10.40;99.90
10472;DHT22;5283;48.876;8.962;2023-01-05T01:24:19;10.40;99.90
10472;DHT22;5283;48.876;8.962;2023-01-05T01:26:46;10.40;99.90
10472;DHT22;5283;48.876;8.962;2023-01-05T01:29:12;10.40;99.90
10472;DHT22;5283;48.876;8.962;2023-01-05T01:31:39;10.40;99.90
10472;DHT22;5283;48.876;8.962;2023-01-05T01:34:06;10.50;99.90
10472;DHT22;5283;48.876;8.962;2023-01-05T01:36:32;10.50;99.90
10472;DHT22;5283;48.876;8.962;2023-01-05T01:38:59;10.60;99.90
10472;DHT22;5283;48.876;8.962;2023-01-05T01:41:26;10.60;99.90
10472;DHT22;5283;48.876;8.962;2023-01-05T01:43:54;10.60;99.90
10472;DHT22;5283;48.876;8.962;2023-01-05T01:46:22;10.70;99.90
10472;DHT22;5283;48.876;8.962;2023-01-05T01:49:00;10.70;99.90
10472;DHT22;5283;48.876;8.962;2023-01-05T01:51:53;10.70;99.90
10472;DHT22;5283;48.876;8.962;2023-01-05T01:54:20;10.70;99.90
10472;DHT22;5283;48.876;8.962;2023-01-05T01:56:51;10.80;99.90
10472;DHT22;5283;48.876;8.962;2023-01-05T01:59:18;10.90;99.90
10472;DHT22;5283;48.876;8.962;2023-01-05T02:01:47;10.90;99.90
10472;DHT22;5283;48.876;8.962;2023-01-05T02:04:14;11.10;99.90
10472;DHT22;5283;48.876;8.962;2023-01-05T02:06:41;11.30;99.90
10472;DHT22;5283;48.876;8.962;2023-01-05T02:09:07;11.40;99.90
10472;DHT22;5283;48.876;8.962;2023-01-05T02:11:57;11.40;99.90
10472;DHT22;5283;48.876;8.962;2023-01-05T02:15:10;11.60;99.90
10472;DHT22;5283;48.876;8.962;2023-01-05T02:18:15;11.60;99.90
10472;DHT22;5283;48.876;8.962;2023-01-05T02:26:41;11.90;99.90
10472;DHT22;5283;48.876;8.962;2023-01-05T02:32:13;11.90;99.90
10472;DHT22;5283;48.876;8.962;2023-01-05T02:34:51;11.90;99.90
10472;DHT22;5283;48.876;8.962;2023-01-05T02:40:53;12.10;99.90
10472;DHT22;5283;48.876;8.962;2023-01-05T02:43:21;12.10;99.90
10472;DHT22;5283;48.876;8.962;2023-01-05T02:45:48;12.20;99.90
10472;DHT22;5283;48.876;8.962;2023-01-05T02:48:15;12.20;99.90
10472;DHT22;5283;48.876;8.962;2023-01-05T02:50:46;12.20;99.90
10472;DHT22;5283;48.876;8.962;2023-01-05T02:53:25;12.30;99.90
10472;DHT22;5283;48.876;8.962;2023-01-05T02:58:31;12.20;99.90
10472;DHT22;5283;48.876;8.962;2023-01-05T03:01:02;12.20;99.90
10472;DHT22;5283;48.876;8.962;2023-01-05T03:06:12;12.10;99.90
10472;DHT22;5283;48.876;8.962;2023-01-05T03:08:47;12.10;99.90
10472;DHT22;5283;48.876;8.962;2023-01-05T03:11:15;12.20;99.90
10472;DHT22;5283;48.876;8.962;2023-01-05T03:16:35;12.10;99.90
10472;DHT22;5283;48.876;8.962;2023-01-05T03:19:08;12.00;99.90
10472;DHT22;5283;48.876;8.962;2023-01-05T03:21:57;12.00;99.90
10472;DHT22;5283;48.876;8.962;2023-01-05T03:24:43;11.90;99.90
10472;DHT22;5283;48.876;8.962;2023-01-05T03:27:30;11.90;99.90
10472;DHT22;5283;48.876;8.962;2023-01-05T03:30:16;11.90;99.90
10472;DHT22;5283;48.876;8.962;2023-01-05T03:33:11;11.90;99.90
10472;DHT22;5283;48.876;8.962;2023-01-05T03:36:00;11.90;99.90
10472;DHT22;5283;48.876;8.962;2023-01-05T03:38:34;11.90;99.90
10472;DHT22;5283;48.876;8.962;2023-01-05T03:41:03;11.90;99.90
10472;DHT22;5283;48.876;8.962;2023-01-05T03:43:35;11.80;99.90
10472;DHT22;5283;48.876;8.962;2023-01-05T03:46:12;11.80;99.90
10472;DHT22;5283;48.876;8.962;2023-01-05T03:48:40;11.80;99.90
10472;DHT22;5283;48.876;8.962;2023-01-05T03:51:07;11.70;99.90
10472;DHT22;5283;48.876;8.962;2023-01-05T03:53:34;11.70;99.90
10472;DHT22;5283;48.876;8.962;2023-01-05T03:56:01;11.60;99.90
10472;DHT22;5283;48.876;8.962;2023-01-05T03:58:27;11.60;99.90
10472;DHT22;5283;48.876;8.962;2023-01-05T04:00:54;11.50;99.90
10472;DHT22;5283;48.876;8.962;2023-01-05T04:03:21;11.50;99.90
10472;DHT22;5283;48.876;8.962;2023-01-05T04:05:50;11.40;99.90
10472;DHT22;5283;48.876;8.962;2023-01-05T04:08:17;11.50;99.90
10472;DHT22;5283;48.876;8.962;2023-01-05T04:10:43;11.50;99.90
10472;DHT22;5283;48.876;8.962;2023-01-05T04:13:10;11.50;99.90
10472;DHT22;5283;48.876;8.962;2023-01-05T04:15:38;11.60;99.90
10472;DHT22;5283;48.876;8.962;2023-01-05T04:18:05;11.60;99.90
10472;DHT22;5283;48.876;8.962;2023-01-05T04:20:31;11.50;99.90
10472;DHT22;5283;48.876;8.962;2023-01-05T04:22:58;11.50;99.90
10472;DHT22;5283;48.876;8.962;2023-01-05T04:25:25;11.60;99.90
10472;DHT22;5283;48.876;8.962;2023-01-05T04:27:51;11.70;99.90
10472;DHT22;5283;48.876;8.962;2023-01-05T04:30:18;11.70;99.90
10472;DHT22;5283;48.876;8.962;2023-01-05T04:32:46;11.70;99.90
10472;DHT22;5283;48.876;8.962;2023-01-05T04:35:12;11.70;99.90
10472;DHT22;5283;48.876;8.962;2023-01-05T04:37:39;11.70;99.90
10472;DHT22;5283;48.876;8.962;2023-01-05T04:40:06;11.60;99.90
10472;DHT22;5283;48.876;8.962;2023-01-05T04:42:33;11.60;99.90
10472;DHT22;5283;48.876;8.962;2023-01-05T04:45:00;11.50;99.90
10472;DHT22;5283;48.876;8.962;2023-01-05T04:47:26;11.50;99.90
10472;DHT22;5283;48.876;8.962;2023-01-05T04:49:53;11.40;99.90
10472;DHT22;5283;48.876;8.962;2023-01-05T04:52:19;11.30;99.90
10472;DHT22;5283;48.876;8.962;2023-01-05T04:54:46;11.20;99.90
10472;DHT22;5283;48.876;8.962;2023-01-05T04:57:13;11.20;99.90
10472;DHT22;5283;48.876;8.962;2023-01-05T04:59:39;11.20;99.90
10472;DHT22;5283;48.876;8.962;2023-01-05T05:02:07;11.00;99.90
10472;DHT22;5283;48.876;8.962;2023-01-05T05:04:34;11.00;99.90
10472;DHT22;5283;48.876;8.962;2023-01-05T05:07:01;11.00;99.90
10472;DHT22;5283;48.876;8.962;2023-01-05T05:09:28;10.90;99.90
10472;DHT22;5283;48.876;8.962;2023-01-05T05:11:54;10.80;99.90
10472;DHT22;5283;48.876;8.962;2023-01-05T05:14:21;10.80;99.90
10472;DHT22;5283;48.876;8.962;2023-01-05T05:16:48;10.70;99.90
10472;DHT22;5283;48.876;8.962;2023-01-05T05:19:14;10.60;99.90
10472;DHT22;5283;48.876;8.962;2023-01-05T05:21:41;10.60;99.90
10472;DHT22;5283;48.876;8.962;2023-01-05T05:24:08;10.50;99.90
10472;DHT22;5283;48.876;8.962;2023-01-05T05:26:34;10.50;99.90
10472;DHT22;5283;48.876;8.962;2023-01-05T05:29:01;10.40;99.90
10472;DHT22;5283;48.876;8.962;2023-01-05T05:31:28;10.30;99.90
10472;DHT22;5283;48.876;8.962;2023-01-05T05:33:54;10.30;99.90
10472;DHT22;5283;48.876;8.962;2023-01-05T05:36:21;10.30;99.90
10472;DHT22;5283;48.876;8.962;2023-01-05T05:38:48;10.30;99.90
10472;DHT22;5283;48.876;8.962;2023-01-05T05:41:15;10.30;99.90
10472;DHT22;5283;48.876;8.962;2023-01-05T05:43:41;10.30;99.90
10472;DHT22;5283;48.876;8.962;2023-01-05T05:46:08;10.30;99.90
10472;DHT22;5283;48.876;8.962;2023-01-05T05:48:35;10.50;99.90
10472;DHT22;5283;48.876;8.962;2023-01-05T05:51:01;10.40;99.90
10472;DHT22;5283;48.876;8.962;2023-01-05T05:53:28;10.40;99.90
10472;DHT22;5283;48.876;8.962;2023-01-05T05:55:55;10.40;99.90
10472;DHT22;5283;48.876;8.962;2023-01-05T05:58:21;10.40;99.90
10472;DHT22;5283;48.876;8.962;2023-01-05T06:00:48;10.40;99.90
10472;DHT22;5283;48.876;8.962;2023-01-05T06:03:15;10.30;99.90
10472;DHT22;5283;48.876;8.962;2023-01-05T06:05:42;10.40;99.90
10472;DHT22;5283;48.876;8.962;2023-01-05T06:08:09;10.30;99.90
10472;DHT22;5283;48.876;8.962;2023-01-05T06:10:36;10.20;99.90
10472;DHT22;5283;48.876;8.962;2023-01-05T06:13:03;10.30;99.90
10472;DHT22;5283;48.876;8.962;2023-01-05T06:15:30;10.20;99.90
10472;DHT22;5283;48.876;8.962;2023-01-05T06:17:57;10.20;99.90
10472;DHT22;5283;48.876;8.962;2023-01-05T06:20:24;10.20;99.90
10472;DHT22;5283;48.876;8.962;2023-01-05T06:22:50;10.20;99.90
10472;DHT22;5283;48.876;8.962;2023-01-05T06:25:17;10.20;99.90
10472;DHT22;5283;48.876;8.962;2023-01-05T06:27:44;10.20;99.90
10472;DHT22;5283;48.876;8.962;2023-01-05T06:30:11;10.20;99.90
10472;DHT22;5283;48.876;8.962;2023-01-05T06:32:37;10.20;99.90
10472;DHT22;5283;48.876;8.962;2023-01-05T06:35:04;10.20;99.90
10472;DHT22;5283;48.876;8.962;2023-01-05T06:37:31;10.20;99.90
10472;DHT22;5283;48.876;8.962;2023-01-05T06:39:58;10.20;99.90
10472;DHT22;5283;48.876;8.962;2023-01-05T06:42:25;10.20;99.90
10472;DHT22;5283;48.876;8.962;2023-01-05T06:44:52;10.30;99.90
10472;DHT22;5283;48.876;8.962;2023-01-05T06:47:19;10.30;99.90
10472;DHT22;5283;48.876;8.962;2023-01-05T06:49:45;10.20;99.90
10472;DHT22;5283;48.876;8.962;2023-01-05T06:52:12;10.20;99.90
10472;DHT22;5283;48.876;8.962;2023-01-05T06:54:41;10.20;99.90
10472;DHT22;5283;48.876;8.962;2023-01-05T06:57:08;10.20;99.90
10472;DHT22;5283;48.876;8.962;2023-01-05T06:59:35;10.20;99.90
10472;DHT22;5283;48.876;8.962;2023-01-05T07:02:01;10.20;99.90
10472;DHT22;5283;48.876;8.962;2023-01-05T07:04:28;10.20;99.90
10472;DHT22;5283;48.876;8.962;2023-01-05T07:06:55;10.30;99.90
10472;DHT22;5283;48.876;8.962;2023-01-05T07:09:21;10.40;99.90
10472;DHT22;5283;48.876;8.962;2023-01-05T07:11:48;10.30;99.90
10472;DHT22;5283;48.876;8.962;2023-01-05T07:14:15;10.40;99.90
10472;DHT22;5283;48.876;8.962;2023-01-05T07:16:41;10.40;99.90
10472;DHT22;5283;48.876;8.962;2023-01-05T07:19:09;10.30;99.90
10472;DHT22;5283;48.876;8.962;2023-01-05T07:21:36;10.40;99.90
10472;DHT22;5283;48.876;8.962;2023-01-05T07:24:03;10.40;99.90
10472;DHT22;5283;48.876;8.962;2023-01-05T07:26:29;10.40;99.90
10472;DHT22;5283;48.876;8.962;2023-01-05T07:28:56;10.30;99.90
10472;DHT22;5283;48.876;8.962;2023-01-05T07:31:24;10.40;99.90
10472;DHT22;5283;48.876;8.962;2023-01-05T07:33:50;10.40;99.90
10472;DHT22;5283;48.876;8.962;2023-01-05T07:36:17;10.30;99.90
10472;DHT22;5283;48.876;8.962;2023-01-05T07:38:44;10.20;99.90
10472;DHT22;5283;48.876;8.962;2023-01-05T07:41:10;10.30;99.90
10472;DHT22;5283;48.876;8.962;2023-01-05T07:43:37;10.20;99.90
10472;DHT22;5283;48.876;8.962;2023-01-05T07:46:04;10.20;99.90
10472;DHT22;5283;48.876;8.962;2023-01-05T07:48:31;10.20;99.90
10472;DHT22;5283;48.876;8.962;2023-01-05T07:51:01;10.20;99.90
10472;DHT22;5283;48.876;8.962;2023-01-05T07:53:31;10.10;99.90
10472;DHT22;5283;48.876;8.962;2023-01-05T07:56:00;10.10;99.90
10472;DHT22;5283;48.876;8.962;2023-01-05T07:58:28;10.10;99.90
10472;DHT22;5283;48.876;8.962;2023-01-05T08:00:55;10.30;99.90
10472;DHT22;5283;48.876;8.962;2023-01-05T08:03:22;10.30;99.90
10472;DHT22;5283;48.876;8.962;2023-01-05T08:05:48;10.20;99.90
10472;DHT22;5283;48.876;8.962;2023-01-05T08:08:15;10.20;99.90
10472;DHT22;5283;48.876;8.962;2023-01-05T08:10:46;10.30;99.90
10472;DHT22;5283;48.876;8.962;2023-01-05T08:13:13;10.30;99.90
10472;DHT22;5283;48.876;8.962;2023-01-05T08:15:58;10.20;99.90
10472;DHT22;5283;48.876;8.962;2023-01-05T08:18:26;10.30;99.90
10472;DHT22;5283;48.876;8.962;2023-01-05T08:20:55;10.30;99.90
10472;DHT22;5283;48.876;8.962;2023-01-05T08:23:26;10.30;99.90
10472;DHT22;5283;48.876;8.962;2023-01-05T08:25:54;10.30;99.90
10472;DHT22;5283;48.876;8.962;2023-01-05T08:28:24;10.30;99.90
10472;DHT22;5283;48.876;8.962;2023-01-05T08:30:52;10.40;99.90
10472;DHT22;5283;48.876;8.962;2023-01-05T08:33:25;10.30;99.90
10472;DHT22;5283;48.876;8.962;2023-01-05T08:35:51;10.30;99.90
10472;DHT22;5283;48.876;8.962;2023-01-05T08:38:20;10.30;99.90
10472;DHT22;5283;48.876;8.962;2023-01-05T08:40:47;10.30;99.90
10472;DHT22;5283;48.876;8.962;2023-01-05T08:43:13;10.30;99.90
10472;DHT22;5283;48.876;8.962;2023-01-05T08:45:40;10.30;99.90
10472;DHT22;5283;48.876;8.962;2023-01-05T08:48:08;10.30;99.90
10472;DHT22;5283;48.876;8.962;2023-01-05T08:50:37;10.30;99.90
10472;DHT22;5283;48.876;8.962;2023-01-05T08:53:04;10.30;99.90
10472;DHT22;5283;48.876;8.962;2023-01-05T08:55:30;10.30;99.90
10472;DHT22;5283;48.876;8.962;2023-01-05T08:57:58;10.20;99.90
10472;DHT22;5283;48.876;8.962;2023-01-05T09:00:24;10.20;99.90
10472;DHT22;5283;48.876;8.962;2023-01-05T09:02:51;10.20;99.90
10472;DHT22;5283;48.876;8.962;2023-01-05T09:05:18;10.30;99.90
10472;DHT22;5283;48.876;8.962;2023-01-05T09:07:44;10.30;99.90
10472;DHT22;5283;48.876;8.962;2023-01-05T09:10:11;10.30;99.90
10472;DHT22;5283;48.876;8.962;2023-01-05T09:12:38;10.30;99.90
10472;DHT22;5283;48.876;8.962;2023-01-05T09:15:06;10.30;99.90
10472;DHT22;5283;48.876;8.962;2023-01-05T09:17:33;10.40;99.90
10472;DHT22;5283;48.876;8.962;2023-01-05T09:20:01;10.40;99.90
10472;DHT22;5283;48.876;8.962;2023-01-05T09:22:32;10.40;99.90
10472;DHT22;5283;48.876;8.962;2023-01-05T09:25:02;10.40;99.90
10472;DHT22;5283;48.876;8.962;2023-01-05T09:27:29;10.40;99.90
10472;DHT22;5283;48.876;8.962;2023-01-05T09:29:56;10.40;99.90
10472;DHT22;5283;48.876;8.962;2023-01-05T09:32:23;10.30;99.90
10472;DHT22;5283;48.876;8.962;2023-01-05T09:34:49;10.30;99.90
10472;DHT22;5283;48.876;8.962;2023-01-05T09:37:16;10.30;99.90
10472;DHT22;5283;48.876;8.962;2023-01-05T09:39:43;10.30;99.90
10472;DHT22;5283;48.876;8.962;2023-01-05T09:42:20;10.30;99.90
10472;DHT22;5283;48.876;8.962;2023-01-05T09:44:52;10.30;99.90
10472;DHT22;5283;48.876;8.962;2023-01-05T09:47:40;10.30;99.90
10472;DHT22;5283;48.876;8.962;2023-01-05T09:50:17;10.30;99.90
10472;DHT22;5283;48.876;8.962;2023-01-05T09:52:45;10.30;99.90
10472;DHT22;5283;48.876;8.962;2023-01-05T09:55:16;10.30;99.90
10472;DHT22;5283;48.876;8.962;2023-01-05T09:58:05;10.30;99.90
10472;DHT22;5283;48.876;8.962;2023-01-05T10:00:34;10.30;99.90
10472;DHT22;5283;48.876;8.962;2023-01-05T10:03:07;10.30;99.90
10472;DHT22;5283;48.876;8.962;2023-01-05T10:05:40;10.30;99.90
10472;DHT22;5283;48.876;8.962;2023-01-05T10:08:34;10.30;99.90
10472;DHT22;5283;48.876;8.962;2023-01-05T10:11:09;10.40;99.90
10472;DHT22;5283;48.876;8.962;2023-01-05T10:14:21;10.40;99.90
10472;DHT22;5283;48.876;8.962;2023-01-05T10:16:49;10.60;99.90
10472;DHT22;5283;48.876;8.962;2023-01-05T10:19:19;10.60;99.90
10472;DHT22;5283;48.876;8.962;2023-01-05T10:21:54;10.60;99.90
10472;DHT22;5283;48.876;8.962;2023-01-05T10:27:55;10.70;99.90
10472;DHT22;5283;48.876;8.962;2023-01-05T10:36:28;10.80;99.90
10472;DHT22;5283;48.876;8.962;2023-01-05T10:39:28;10.80;99.90
10472;DHT22;5283;48.876;8.962;2023-01-05T10:44:55;10.70;99.90
10472;DHT22;5283;48.876;8.962;2023-01-05T10:47:26;10.70;99.90
10472;DHT22;5283;48.876;8.962;2023-01-05T10:49:54;10.70;99.90
10472;DHT22;5283;48.876;8.962;2023-01-05T10:52:21;10.70;99.90
10472;DHT22;5283;48.876;8.962;2023-01-05T10:54:58;10.70;99.90
10472;DHT22;5283;48.876;8.962;2023-01-05T10:57:29;10.80;99.90
10472;DHT22;5283;48.876;8.962;2023-01-05T11:00:03;10.70;99.90
10472;DHT22;5283;48.876;8.962;2023-01-05T11:02:34;10.80;99.90
10472;DHT22;5283;48.876;8.962;2023-01-05T11:05:36;10.80;99.90
10472;DHT22;5283;48.876;8.962;2023-01-05T11:08:06;10.90;99.90
10472;DHT22;5283;48.876;8.962;2023-01-05T11:10:46;10.90;99.90
10472;DHT22;5283;48.876;8.962;2023-01-05T11:15:54;10.70;99.90
10472;DHT22;5283;48.876;8.962;2023-01-05T11:23:51;10.80;99.90
10472;DHT22;5283;48.876;8.962;2023-01-05T11:31:58;10.80;99.90
10472;DHT22;5283;48.876;8.962;2023-01-05T11:42:12;10.90;99.90
10472;DHT22;5283;48.876;8.962;2023-01-05T11:44:59;10.90;99.90
10472;DHT22;5283;48.876;8.962;2023-01-05T11:47:38;10.90;99.90
10472;DHT22;5283;48.876;8.962;2023-01-05T11:52:41;10.70;99.90
10472;DHT22;5283;48.876;8.962;2023-01-05T12:01:04;10.70;99.90
10472;DHT22;5283;48.876;8.962;2023-01-05T12:06:33;10.70;99.90
10472;DHT22;5283;48.876;8.962;2023-01-05T12:11:34;10.80;99.90
10472;DHT22;5283;48.876;8.962;2023-01-05T12:14:16;10.70;99.90
10472;DHT22;5283;48.876;8.962;2023-01-05T12:16:48;10.80;99.90
10472;DHT22;5283;48.876;8.962;2023-01-05T12:19:30;10.70;99.90
10472;DHT22;5283;48.876;8.962;2023-01-05T12:22:34;10.80;99.90
10472;DHT22;5283;48.876;8.962;2023-01-05T12:28:01;10.70;99.90
10472;DHT22;5283;48.876;8.962;2023-01-05T12:30:53;10.70;99.90
10472;DHT22;5283;48.876;8.962;2023-01-05T12:45:36;10.90;99.90
10472;DHT22;5283;48.876;8.962;2023-01-05T12:48:14;10.80;99.90
10472;DHT22;5283;48.876;8.962;2023-01-05T12:54:08;10.80;99.90
10472;DHT22;5283;48.876;8.962;2023-01-05T12:56:51;10.70;99.90
10472;DHT22;5283;48.876;8.962;2023-01-05T12:59:23;10.70;99.90
10472;DHT22;5283;48.876;8.962;2023-01-05T13:04:39;10.80;99.90
10472;DHT22;5283;48.876;8.962;2023-01-05T13:08:03;10.80;99.90
10472;DHT22;5283;48.876;8.962;2023-01-05T13:10:06;10.90;99.90
10472;DHT22;5283;48.876;8.962;2023-01-05T13:12:38;11.00;99.90
10472;DHT22;5283;48.876;8.962;2023-01-05T13:15:14;10.90;99.90
10472;DHT22;5283;48.876;8.962;2023-01-05T13:17:46;10.90;99.90
10472;DHT22;5283;48.876;8.962;2023-01-05T13:20:39;10.90;99.90
10472;DHT22;5283;48.876;8.962;2023-01-05T13:23:18;10.90;99.90
10472;DHT22;5283;48.876;8.962;2023-01-05T13:28:24;11.10;99.90
10472;DHT22;5283;48.876;8.962;2023-01-05T13:30:58;11.10;99.90
10472;DHT22;5283;48.876;8.962;2023-01-05T13:39:31;11.00;99.90
10472;DHT22;5283;48.876;8.962;2023-01-05T13:53:25;10.80;99.90
10472;DHT22;5283;48.876;8.962;2023-01-05T13:56:04;10.70;99.90
10472;DHT22;5283;48.876;8.962;2023-01-05T13:58:43;10.80;99.90
10472;DHT22;5283;48.876;8.962;2023-01-05T14:04:01;10.70;99.90
10472;DHT22;5283;48.876;8.962;2023-01-05T14:06:30;10.70;99.90
10472;DHT22;5283;48.876;8.962;2023-01-05T14:09:04;10.70;99.90
10472;DHT22;5283;48.876;8.962;2023-01-05T14:11:32;10.60;99.90
10472;DHT22;5283;48.876;8.962;2023-01-05T14:14:23;10.60;99.90
10472;DHT22;5283;48.876;8.962;2023-01-05T14:16:47;10.60;99.90
10472;DHT22;5283;48.876;8.962;2023-01-05T14:22:23;10.70;99.90
10472;DHT22;5283;48.876;8.962;2023-01-05T14:24:50;10.70;99.90
10472;DHT22;5283;48.876;8.962;2023-01-05T14:27:19;10.60;99.90
10472;DHT22;5283;48.876;8.962;2023-01-05T14:32:36;10.60;99.90
10472;DHT22;5283;48.876;8.962;2023-01-05T14:35:20;10.50;99.90
10472;DHT22;5283;48.876;8.962;2023-01-05T14:40:44;10.50;99.90
10472;DHT22;5283;48.876;8.962;2023-01-05T14:43:21;10.60;99.90
10472;DHT22;5283;48.876;8.962;2023-01-05T14:46:10;10.60;99.90
10472;DHT22;5283;48.876;8.962;2023-01-05T14:49:02;10.60;99.90
10472;DHT22;5283;48.876;8.962;2023-01-05T14:51:31;10.60;99.90
10472;DHT22;5283;48.876;8.962;2023-01-05T14:54:01;10.50;99.90
10472;DHT22;5283;48.876;8.962;2023-01-05T14:56:34;10.50;99.90
10472;DHT22;5283;48.876;8.962;2023-01-05T14:59:22;10.50;99.90
10472;DHT22;5283;48.876;8.962;2023-01-05T15:04:28;10.50;99.90
10472;DHT22;5283;48.876;8.962;2023-01-05T15:21:11;10.50;99.90
10472;DHT22;5283;48.876;8.962;2023-01-05T15:29:14;10.50;99.90
10472;DHT22;5283;48.876;8.962;2023-01-05T15:31:46;10.60;99.90
10472;DHT22;5283;48.876;8.962;2023-01-05T15:34:20;10.60;99.90
10472;DHT22;5283;48.876;8.962;2023-01-05T15:39:46;10.50;99.90
10472;DHT22;5283;48.876;8.962;2023-01-05T15:45:00;10.40;99.90
10472;DHT22;5283;48.876;8.962;2023-01-05T15:47:27;10.40;99.90
10472;DHT22;5283;48.876;8.962;2023-01-05T15:49:59;10.40;99.90
10472;DHT22;5283;48.876;8.962;2023-01-05T15:52:33;10.30;99.90
10472;DHT22;5283;48.876;8.962;2023-01-05T15:55:11;10.30;99.90
10472;DHT22;5283;48.876;8.962;2023-01-05T15:57:38;10.30;99.90
10472;DHT22;5283;48.876;8.962;2023-01-05T16:00:16;10.20;99.90
10472;DHT22;5283;48.876;8.962;2023-01-05T16:02:43;10.20;99.90
10472;DHT22;5283;48.876;8.962;2023-01-05T16:05:16;10.20;99.90
10472;DHT22;5283;48.876;8.962;2023-01-05T16:07:54;10.30;99.90
10472;DHT22;5283;48.876;8.962;2023-01-05T16:10:44;10.30;99.90
10472;DHT22;5283;48.876;8.962;2023-01-05T16:13:18;10.40;99.90
10472;DHT22;5283;48.876;8.962;2023-01-05T16:15:49;10.30;99.90
10472;DHT22;5283;48.876;8.962;2023-01-05T16:18:24;10.30;99.90
10472;DHT22;5283;48.876;8.962;2023-01-05T16:20:53;10.20;99.90
10472;DHT22;5283;48.876;8.962;2023-01-05T16:23:31;10.20;99.90
10472;DHT22;5283;48.876;8.962;2023-01-05T16:26:00;10.20;99.90
10472;DHT22;5283;48.876;8.962;2023-01-05T16:28:26;10.30;99.90
10472;DHT22;5283;48.876;8.962;2023-01-05T16:30:54;10.30;99.90
10472;DHT22;5283;48.876;8.962;2023-01-05T16:33:34;10.20;99.90
10472;DHT22;5283;48.876;8.962;2023-01-05T16:36:18;10.10;99.90
10472;DHT22;5283;48.876;8.962;2023-01-05T16:38:45;10.10;99.90
10472;DHT22;5283;48.876;8.962;2023-01-05T16:43:57;10.10;99.90
10472;DHT22;5283;48.876;8.962;2023-01-05T16:46:28;10.00;99.90
10472;DHT22;5283;48.876;8.962;2023-01-05T16:51:44;9.90;99.90
10472;DHT22;5283;48.876;8.962;2023-01-05T16:54:16;9.90;99.90
10472;DHT22;5283;48.876;8.962;2023-01-05T17:02:27;9.70;99.90
10472;DHT22;5283;48.876;8.962;2023-01-05T17:04:53;9.50;99.90
10472;DHT22;5283;48.876;8.962;2023-01-05T17:07:20;9.30;99.90
10472;DHT22;5283;48.876;8.962;2023-01-05T17:09:47;9.10;99.90
10472;DHT22;5283;48.876;8.962;2023-01-05T17:12:14;9.10;99.90
10472;DHT22;5283;48.876;8.962;2023-01-05T17:14:41;9.00;99.90
10472;DHT22;5283;48.876;8.962;2023-01-05T17:17:11;9.00;99.90
10472;DHT22;5283;48.876;8.962;2023-01-05T17:19:38;9.00;99.90
10472;DHT22;5283;48.876;8.962;2023-01-05T17:22:06;9.00;99.90
10472;DHT22;5283;48.876;8.962;2023-01-05T17:24:34;8.90;99.90
10472;DHT22;5283;48.876;8.962;2023-01-05T17:27:01;8.80;99.90
10472;DHT22;5283;48.876;8.962;2023-01-05T17:29:29;8.70;99.90
10472;DHT22;5283;48.876;8.962;2023-01-05T17:31:57;8.60;99.90
10472;DHT22;5283;48.876;8.962;2023-01-05T17:34:24;8.50;99.90
10472;DHT22;5283;48.876;8.962;2023-01-05T17:36:54;8.50;99.90
10472;DHT22;5283;48.876;8.962;2023-01-05T17:39:22;8.50;99.90
10472;DHT22;5283;48.876;8.962;2023-01-05T17:41:48;8.60;99.90
10472;DHT22;5283;48.876;8.962;2023-01-05T17:44:15;8.60;99.90
10472;DHT22;5283;48.876;8.962;2023-01-05T17:46:44;8.50;99.90
10472;DHT22;5283;48.876;8.962;2023-01-05T17:49:14;8.50;99.90
10472;DHT22;5283;48.876;8.962;2023-01-05T17:51:41;8.30;99.90
10472;DHT22;5283;48.876;8.962;2023-01-05T17:54:08;8.10;99.90
10472;DHT22;5283;48.876;8.962;2023-01-05T17:56:35;8.00;99.90
10472;DHT22;5283;48.876;8.962;2023-01-05T17:59:02;7.90;99.90
10472;DHT22;5283;48.876;8.962;2023-01-05T18:01:30;7.80;99.90
10472;DHT22;5283;48.876;8.962;2023-01-05T18:03:59;7.70;99.90
10472;DHT22;5283;48.876;8.962;2023-01-05T18:06:26;7.60;99.90
10472;DHT22;5283;48.876;8.962;2023-01-05T18:08:53;7.60;99.90
10472;DHT22;5283;48.876;8.962;2023-01-05T18:11:20;7.50;99.90
10472;DHT22;5283;48.876;8.962;2023-01-05T18:13:47;7.50;99.90
10472;DHT22;5283;48.876;8.962;2023-01-05T18:16:14;7.40;99.90
10472;DHT22;5283;48.876;8.962;2023-01-05T18:18:41;7.40;99.90
10472;DHT22;5283;48.876;8.962;2023-01-05T18:21:07;7.40;99.90
10472;DHT22;5283;48.876;8.962;2023-01-05T18:23:35;7.40;99.90
10472;DHT22;5283;48.876;8.962;2023-01-05T18:26:07;7.40;99.90
10472;DHT22;5283;48.876;8.962;2023-01-05T18:28:34;7.40;99.90
10472;DHT22;5283;48.876;8.962;2023-01-05T18:31:08;7.30;99.90
10472;DHT22;5283;48.876;8.962;2023-01-05T18:33:35;7.20;99.90
10472;DHT22;5283;48.876;8.962;2023-01-05T18:36:06;7.10;99.90
10472;DHT22;5283;48.876;8.962;2023-01-05T18:38:34;7.00;99.90
10472;DHT22;5283;48.876;8.962;2023-01-05T18:41:00;7.00;99.90
10472;DHT22;5283;48.876;8.962;2023-01-05T18:43:27;7.10;99.90
10472;DHT22;5283;48.876;8.962;2023-01-05T18:45:54;7.20;99.90
10472;DHT22;5283;48.876;8.962;2023-01-05T18:48:21;7.20;99.90
10472;DHT22;5283;48.876;8.962;2023-01-05T18:50:48;7.30;99.90
10472;DHT22;5283;48.876;8.962;2023-01-05T18:53:19;7.30;99.90